createdAt,value
2022-12-11T00:00:28.646Z,92945.00
2022-12-11T00:01:30.224Z,92941.28
2022-12-11T00:02:33.223Z,92951.81
2022-12-11T00:03:34.973Z,92947.00
2022-12-11T00:04:36.593Z,92943.25
2022-12-11T00:05:39.724Z,92940.38
2022-12-11T00:06:41.335Z,92944.75
2022-12-11T00:07:45.841Z,92940.84
2022-12-11T00:08:47.518Z,92946.69
2022-12-11T00:09:49.128Z,92937.47
2022-12-11T00:10:50.778Z,92944.06
2022-12-11T00:11:52.495Z,92943.41
2022-12-11T00:12:54.120Z,92940.94
2022-12-11T00:13:55.666Z,92947.75
2022-12-11T00:14:57.263Z,92940.44
2022-12-11T00:15:59.387Z,92947.50
2022-12-11T00:17:00.932Z,92941.41
2022-12-11T00:18:03.920Z,92950.47
2022-12-11T00:19:05.799Z,92946.13
2022-12-11T00:20:08.444Z,92943.88
2022-12-11T00:21:13.625Z,92937.09
2022-12-11T00:22:15.227Z,92944.63
2022-12-11T00:23:16.881Z,92935.03
2022-12-11T00:24:18.464Z,92939.84
2022-12-11T00:25:20.103Z,92941.00
2022-12-11T00:26:21.762Z,92935.03
2022-12-11T00:27:23.353Z,92944.13
2022-12-11T00:28:24.981Z,92941.78
2022-12-11T00:29:26.590Z,92945.53
2022-12-11T00:30:28.167Z,92949.97
2022-12-11T00:31:30.034Z,92946.69
2022-12-11T00:32:36.159Z,92953.75
2022-12-11T00:33:45.142Z,92948.47
2022-12-11T00:34:46.726Z,92948.22
2022-12-11T00:35:48.324Z,92944.31
2022-12-11T00:36:49.866Z,92955.50
2022-12-11T00:37:51.416Z,92946.81
2022-12-11T00:38:54.076Z,92953.75
2022-12-11T00:39:55.624Z,92946.06
2022-12-11T00:40:58.529Z,92943.56
2022-12-11T00:42:00.102Z,92942.38
2022-12-11T00:43:01.869Z,92945.56
2022-12-11T00:44:04.652Z,92943.50
2022-12-11T00:45:07.414Z,92951.53
2022-12-11T00:46:09.262Z,92942.94
2022-12-11T00:47:10.907Z,92941.94
2022-12-11T00:48:13.172Z,92935.47
2022-12-11T00:49:17.034Z,92945.06
2022-12-11T00:50:18.682Z,92938.34
2022-12-11T00:51:20.255Z,92943.81
2022-12-11T00:52:21.862Z,92938.03
2022-12-11T00:53:23.521Z,92938.53
2022-12-11T00:54:25.136Z,92938.97
2022-12-11T00:55:26.750Z,92940.47
2022-12-11T00:56:28.288Z,92944.56
2022-12-11T00:57:29.895Z,92945.69
2022-12-11T00:58:31.479Z,92945.91
2022-12-11T00:59:33.055Z,92950.47
2022-12-11T01:00:34.815Z,92957.88
2022-12-11T01:01:36.556Z,92955.03
2022-12-11T01:02:38.337Z,92958.19
2022-12-11T01:03:40.009Z,92961.56
2022-12-11T01:04:42.933Z,92966.72
2022-12-11T01:05:51.492Z,92969.78
2022-12-11T01:06:53.077Z,92961.28
2022-12-11T01:07:54.916Z,92965.28
2022-12-11T01:08:56.975Z,92961.03
2022-12-11T01:09:58.569Z,92970.03
2022-12-11T01:11:05.089Z,92971.47
2022-12-11T01:12:06.935Z,92974.50
2022-12-11T01:13:08.558Z,92970.72
2022-12-11T01:14:19.211Z,92974.13
2022-12-11T01:15:22.243Z,92975.94
2022-12-11T01:16:23.845Z,92971.50
2022-12-11T01:17:25.473Z,92979.28
2022-12-11T01:18:27.823Z,92969.13
2022-12-11T01:19:29.468Z,92975.34
2022-12-11T01:20:32.943Z,92969.00
2022-12-11T01:21:34.584Z,92976.63
2022-12-11T01:22:36.171Z,92982.03
2022-12-11T01:23:38.228Z,92974.28
2022-12-11T01:24:39.793Z,92972.97
2022-12-11T01:25:42.460Z,92983.59
2022-12-11T01:26:44.127Z,92987.19
2022-12-11T01:27:45.827Z,92984.09
2022-12-11T01:28:49.896Z,92982.28
2022-12-11T01:29:51.478Z,92978.78
2022-12-11T01:30:53.094Z,92987.94
2022-12-11T01:31:54.705Z,92983.34
2022-12-11T01:32:56.307Z,92979.13
2022-12-11T01:33:57.942Z,92980.38
2022-12-11T01:34:59.548Z,92986.66
2022-12-11T01:36:07.347Z,92978.69
2022-12-11T01:37:08.974Z,92981.22
2022-12-11T01:38:10.570Z,92985.06
2022-12-11T01:39:12.120Z,92992.59
2022-12-11T01:40:15.898Z,92988.25
2022-12-11T01:41:18.189Z,92984.84
2022-12-11T01:42:20.614Z,92988.34
2022-12-11T01:43:22.193Z,92989.16
2022-12-11T01:45:01.193Z,92989.59
2022-12-11T01:46:02.957Z,92987.50
2022-12-11T01:47:04.711Z,92985.91
2022-12-11T01:48:10.898Z,92988.34
2022-12-11T01:49:15.289Z,92982.72
2022-12-11T01:50:17.479Z,92987.66
2022-12-11T01:51:20.638Z,92987.28
2022-12-11T01:52:22.653Z,92987.72
2022-12-11T01:53:28.508Z,92985.38
2022-12-11T01:54:30.591Z,92989.72
2022-12-11T01:55:33.101Z,92995.25
2022-12-11T01:56:36.315Z,92986.72
2022-12-11T01:57:42.945Z,92994.66
2022-12-11T01:58:48.842Z,92994.81
2022-12-11T01:59:50.398Z,92997.34
2022-12-11T02:00:53.132Z,92995.84
2022-12-11T02:01:59.416Z,92994.28
2022-12-11T02:03:00.908Z,92998.72
2022-12-11T02:04:02.739Z,92994.53
2022-12-11T02:05:06.340Z,92990.69
2022-12-11T02:06:31.901Z,92989.06
2022-12-11T02:07:38.816Z,92993.56
2022-12-11T02:08:40.401Z,92997.81
2022-12-11T02:09:44.990Z,92990.13
2022-12-11T02:10:56.124Z,92986.94
2022-12-11T02:12:19.867Z,92982.84
2022-12-11T02:13:29.795Z,92984.41
2022-12-11T02:14:43.692Z,92989.69
2022-12-11T02:15:50.920Z,92984.47
2022-12-11T02:16:59.676Z,92980.50
2022-12-11T02:18:14.458Z,92987.44
2022-12-11T02:19:30.757Z,92988.50
2022-12-11T02:20:37.984Z,92986.13
2022-12-11T02:21:46.143Z,92980.00
2022-12-11T02:23:02.219Z,92984.91
2022-12-11T02:24:32.123Z,92990.63
2022-12-11T02:25:41.215Z,92985.22
2022-12-11T02:27:00.288Z,92997.16
2022-12-11T02:28:23.735Z,92992.00
2022-12-11T02:29:32.305Z,92996.22
2022-12-11T02:30:39.771Z,92995.84
2022-12-11T02:31:46.767Z,92999.88
2022-12-11T02:32:54.746Z,92998.66
2022-12-11T02:34:01.856Z,92999.97
2022-12-11T02:35:11.767Z,93001.50
2022-12-11T02:36:16.136Z,93003.97
2022-12-11T02:37:21.620Z,93003.81
2022-12-11T02:38:28.599Z,93006.97
2022-12-11T02:39:32.160Z,93006.09
2022-12-11T02:40:37.344Z,93009.16
2022-12-11T02:41:43.134Z,93006.19
2022-12-11T02:42:48.108Z,93009.22
2022-12-11T02:43:52.171Z,93004.16
2022-12-11T02:44:55.589Z,93012.06
2022-12-11T02:45:59.083Z,93011.56
2022-12-11T02:47:02.828Z,93009.13
2022-12-11T02:48:06.578Z,93011.56
2022-12-11T02:49:10.144Z,93011.25
2022-12-11T02:50:15.926Z,93010.34
2022-12-11T02:51:22.012Z,93008.03
2022-12-11T02:52:25.450Z,93002.97
2022-12-11T02:53:32.337Z,93008.41
2022-12-11T02:54:37.924Z,93011.50
2022-12-11T02:55:41.822Z,93009.13
2022-12-11T02:56:46.398Z,93005.69
2022-12-11T02:57:51.485Z,93001.00
2022-12-11T02:58:59.063Z,92999.09
2022-12-11T03:00:00.681Z,93005.72
2022-12-11T03:01:02.317Z,93006.16
2022-12-11T03:02:04.647Z,93004.84
2022-12-11T03:03:06.474Z,93000.44
2022-12-11T03:04:08.244Z,92998.00
2022-12-11T03:05:12.419Z,93004.50
2022-12-11T03:06:17.827Z,92999.00
2022-12-11T03:07:23.653Z,92994.41
2022-12-11T03:08:25.276Z,92997.25
2022-12-11T03:09:28.816Z,92998.38
2022-12-11T03:10:30.385Z,92996.69
2022-12-11T03:11:31.984Z,92995.69
2022-12-11T03:12:36.864Z,93001.19
2022-12-11T03:13:39.076Z,92995.06
2022-12-11T03:14:42.797Z,93002.81
2022-12-11T03:15:56.102Z,93000.78
2022-12-11T03:17:13.678Z,93002.00
2022-12-11T03:18:21.744Z,93003.66
2022-12-11T03:19:31.902Z,92997.81
2022-12-11T03:20:40.401Z,93001.03
2022-12-11T03:21:46.714Z,92997.34
2022-12-11T03:23:02.616Z,93001.03
2022-12-11T03:24:10.066Z,92987.59
2022-12-11T03:25:18.088Z,92996.03
2022-12-11T03:26:20.961Z,92993.03
2022-12-11T03:27:29.481Z,92994.50
2022-12-11T03:28:39.401Z,92992.22
2022-12-11T03:29:52.049Z,92990.53
2022-12-11T03:30:54.519Z,92991.31
2022-12-11T03:32:01.440Z,92994.53
2022-12-11T03:33:06.334Z,92995.88
2022-12-11T03:34:14.085Z,92995.06
2022-12-11T03:35:20.171Z,92998.06
2022-12-11T03:36:26.953Z,93003.31
2022-12-11T03:37:33.393Z,93005.47
2022-12-11T03:38:39.086Z,93001.38
2022-12-11T03:39:46.219Z,93003.25
2022-12-11T03:40:50.117Z,93007.25
2022-12-11T03:41:53.334Z,93006.03
2022-12-11T03:42:57.364Z,93013.00
2022-12-11T03:43:59.236Z,93011.16
2022-12-11T03:45:04.436Z,93010.09
2022-12-11T03:46:09.430Z,93020.56
2022-12-11T03:47:14.331Z,93018.38
2022-12-11T03:48:17.730Z,93010.28
2022-12-11T03:49:24.270Z,93013.94
2022-12-11T03:50:30.588Z,93012.88
2022-12-11T03:51:34.230Z,93014.94
2022-12-11T03:52:42.419Z,93008.91
2022-12-11T03:53:48.128Z,93007.00
2022-12-11T03:54:50.889Z,93014.06
2022-12-11T03:55:54.024Z,93011.25
2022-12-11T03:56:57.952Z,93011.78
2022-12-11T03:57:59.520Z,93009.53
2022-12-11T03:59:01.054Z,93008.22
2022-12-11T04:00:04.750Z,93009.22
2022-12-11T04:01:08.758Z,93007.41
2022-12-11T04:02:10.336Z,93000.88
2022-12-11T04:03:13.835Z,93008.09
2022-12-11T04:04:15.864Z,93003.22
2022-12-11T04:05:17.579Z,93005.91
2022-12-11T04:06:19.228Z,93007.09
2022-12-11T04:07:20.799Z,93002.41
2022-12-11T04:08:23.205Z,93007.16
2022-12-11T04:09:24.797Z,93006.34
2022-12-11T04:10:26.700Z,93003.75
2022-12-11T04:11:28.236Z,93001.63
2022-12-11T04:12:29.818Z,92993.50
2022-12-11T04:13:31.355Z,92993.41
2022-12-11T04:14:32.955Z,92990.13
2022-12-11T04:15:37.001Z,92998.41
2022-12-11T04:16:38.702Z,92992.66
2022-12-11T04:17:40.236Z,92993.56
2022-12-11T04:18:43.118Z,93003.06
2022-12-11T04:19:44.631Z,92992.78
2022-12-11T04:20:46.182Z,92995.91
2022-12-11T04:21:47.741Z,92993.91
2022-12-11T04:22:49.335Z,92995.41
2022-12-11T04:23:51.045Z,93001.78
2022-12-11T04:24:52.626Z,92994.72
2022-12-11T04:25:54.157Z,92989.75
2022-12-11T04:26:55.681Z,92995.63
2022-12-11T04:27:57.221Z,92996.56
2022-12-11T04:28:58.778Z,92993.22
2022-12-11T04:30:00.324Z,92988.16
2022-12-11T04:31:04.234Z,92988.47
2022-12-11T04:32:05.974Z,92985.06
2022-12-11T04:33:07.468Z,92990.78
2022-12-11T04:34:09.249Z,92984.50
2022-12-11T04:35:12.213Z,92981.97
2022-12-11T04:36:14.781Z,92989.13
2022-12-11T04:37:16.350Z,92994.88
2022-12-11T04:38:17.955Z,92991.59
2022-12-11T04:39:19.484Z,92999.06
2022-12-11T04:40:21.509Z,92998.25
2022-12-11T04:41:23.052Z,93000.81
2022-12-11T04:42:24.621Z,93000.84
2022-12-11T04:43:26.185Z,93010.38
2022-12-11T04:44:27.735Z,93003.09
2022-12-11T04:45:29.267Z,93003.25
2022-12-11T04:46:32.236Z,93000.69
2022-12-11T04:47:34.970Z,93003.13
2022-12-11T04:48:37.721Z,93000.69
2022-12-11T04:49:39.307Z,93000.94
2022-12-11T04:50:40.831Z,93002.69
2022-12-11T04:51:42.346Z,92998.97
2022-12-11T04:52:45.498Z,92998.94
2022-12-11T04:53:47.046Z,92995.66
2022-12-11T04:54:48.724Z,92995.19
2022-12-11T04:55:50.270Z,92993.84
2022-12-11T04:56:51.833Z,92995.25
2022-12-11T04:57:53.369Z,92992.66
2022-12-11T04:58:54.897Z,92996.88
2022-12-11T04:59:56.438Z,92987.88
2022-12-11T05:00:58.000Z,92992.28
2022-12-11T05:02:01.205Z,92993.53
2022-12-11T05:03:08.283Z,92991.34
2022-12-11T05:04:09.852Z,92985.91
2022-12-11T05:05:11.785Z,92995.56
2022-12-11T05:06:13.816Z,92983.59
2022-12-11T05:07:15.337Z,92983.25
2022-12-11T05:08:16.977Z,92989.50
2022-12-11T05:09:23.548Z,92986.94
2022-12-11T05:10:25.176Z,92983.16
2022-12-11T05:11:26.675Z,92982.06
2022-12-11T05:12:28.218Z,92985.75
2022-12-11T05:13:30.344Z,92982.78
2022-12-11T05:14:31.944Z,92986.56
2022-12-11T05:15:33.509Z,92985.22
2022-12-11T05:16:35.006Z,92987.13
2022-12-11T05:17:37.868Z,92990.91
2022-12-11T05:18:39.446Z,92986.41
2022-12-11T05:19:41.084Z,92987.75
2022-12-11T05:20:42.600Z,92987.19
2022-12-11T05:21:44.139Z,92987.91
2022-12-11T05:22:45.643Z,92988.09
2022-12-11T05:23:47.228Z,92987.41
2022-12-11T05:24:48.771Z,92981.81
2022-12-11T05:25:53.529Z,92974.34
2022-12-11T05:26:55.100Z,92979.31
2022-12-11T05:27:56.637Z,92980.97
2022-12-11T05:28:58.221Z,92969.69
2022-12-11T05:29:59.864Z,92975.53
2022-12-11T05:31:03.678Z,92977.53
2022-12-11T05:32:05.464Z,92975.59
2022-12-11T05:33:08.323Z,92973.53
2022-12-11T05:34:09.850Z,92977.22
2022-12-11T05:35:11.609Z,92971.16
2022-12-11T05:36:16.468Z,92971.16
2022-12-11T05:37:18.000Z,92975.34
2022-12-11T05:38:20.078Z,92973.88
2022-12-11T05:39:21.698Z,92974.69
2022-12-11T05:40:23.212Z,92974.63
2022-12-11T05:41:26.525Z,92971.84
2022-12-11T05:42:30.880Z,92968.06
2022-12-11T05:43:34.088Z,92967.16
2022-12-11T05:44:35.686Z,92976.63
2022-12-11T05:45:37.499Z,92976.84
2022-12-11T05:46:39.606Z,92972.75
2022-12-11T05:47:41.221Z,92971.47
2022-12-11T05:48:45.931Z,92969.38
2022-12-11T05:49:47.481Z,92971.56
2022-12-11T05:50:57.596Z,92973.78
2022-12-11T05:51:59.235Z,92966.31
2022-12-11T05:53:00.728Z,92961.03
2022-12-11T05:54:03.399Z,92964.88
2022-12-11T05:55:05.648Z,92965.50
2022-12-11T05:56:10.141Z,92960.38
2022-12-11T05:57:11.675Z,92965.34
2022-12-11T05:58:13.231Z,92967.50
2022-12-11T05:59:14.743Z,92966.06
2022-12-11T06:00:16.276Z,92964.72
2022-12-11T06:01:19.500Z,92965.53
2022-12-11T06:02:21.157Z,92965.53
2022-12-11T06:03:22.813Z,92966.38
2022-12-11T06:04:25.815Z,92962.31
2022-12-11T06:05:27.309Z,92970.03
2022-12-11T06:06:29.050Z,92972.22
2022-12-11T06:07:30.600Z,92966.19
2022-12-11T06:08:32.350Z,92965.09
2022-12-11T06:09:33.846Z,92958.97
2022-12-11T06:10:35.380Z,92966.56
2022-12-11T06:11:36.911Z,92962.47
2022-12-11T06:12:38.437Z,92962.34
2022-12-11T06:13:40.353Z,92956.34
2022-12-11T06:14:41.948Z,92960.03
2022-12-11T06:15:43.450Z,92958.81
2022-12-11T06:16:45.078Z,92960.19
2022-12-11T06:17:46.720Z,92954.56
2022-12-11T06:18:48.776Z,92954.69
2022-12-11T06:19:51.626Z,92950.84
2022-12-11T06:20:53.156Z,92949.34
2022-12-11T06:21:54.736Z,92955.75
2022-12-11T06:22:56.281Z,92952.22
2022-12-11T06:24:00.148Z,92943.97
2022-12-11T06:25:01.680Z,92949.63
2022-12-11T06:26:03.713Z,92942.25
2022-12-11T06:27:05.370Z,92944.25
2022-12-11T06:28:06.983Z,92939.13
2022-12-11T06:29:12.643Z,92945.97
2022-12-11T06:30:14.632Z,92944.38
2022-12-11T06:31:16.898Z,92938.91
2022-12-11T06:32:18.529Z,92939.09
2022-12-11T06:33:20.051Z,92939.59
2022-12-11T06:34:21.587Z,92939.72
2022-12-11T06:35:24.703Z,92943.63
2022-12-11T06:36:26.261Z,92947.25
2022-12-11T06:37:27.830Z,92940.75
2022-12-11T06:38:29.355Z,92940.22
2022-12-11T06:39:31.097Z,92942.38
2022-12-11T06:40:32.666Z,92946.00
2022-12-11T06:41:34.233Z,92939.25
2022-12-11T06:42:35.979Z,92944.56
2022-12-11T06:43:39.985Z,92945.38
2022-12-11T06:44:41.703Z,92948.84
2022-12-11T06:45:43.446Z,92946.25
2022-12-11T06:46:45.079Z,92945.91
2022-12-11T06:47:46.675Z,92949.34
2022-12-11T06:48:50.721Z,92944.38
2022-12-11T06:49:52.697Z,92943.88
2022-12-11T06:50:55.580Z,92946.97
2022-12-11T06:51:57.139Z,92947.56
2022-12-11T06:52:58.720Z,92952.47
2022-12-11T06:54:00.273Z,92947.84
2022-12-11T06:55:01.835Z,92954.56
2022-12-11T06:56:04.500Z,92952.28
2022-12-11T06:57:06.088Z,92944.75
2022-12-11T06:58:08.296Z,92944.38
2022-12-11T06:59:11.385Z,92946.50
2022-12-11T07:00:14.385Z,92942.97
2022-12-11T07:01:18.377Z,92949.03
2022-12-11T07:02:20.754Z,92949.31
2022-12-11T07:03:22.463Z,92942.97
2022-12-11T07:04:24.051Z,92945.75
2022-12-11T07:05:25.686Z,92946.16
2022-12-11T07:06:30.034Z,92948.22
2022-12-11T07:07:40.394Z,92945.38
2022-12-11T07:08:41.985Z,92936.63
2022-12-11T07:09:43.515Z,92941.72
2022-12-11T07:10:45.047Z,92936.53
2022-12-11T07:11:49.120Z,92943.50
2022-12-11T07:12:52.609Z,92941.53
2022-12-11T07:13:54.129Z,92943.25
2022-12-11T07:14:55.704Z,92939.88
2022-12-11T07:15:58.341Z,92939.78
2022-12-11T07:16:59.971Z,92948.19
2022-12-11T07:18:01.523Z,92942.41
2022-12-11T07:19:03.245Z,92940.88
2022-12-11T07:20:05.744Z,92945.56
2022-12-11T07:21:08.049Z,92948.84
2022-12-11T07:22:10.933Z,92947.56
2022-12-11T07:23:12.487Z,92949.25
2022-12-11T07:24:14.059Z,92951.66
2022-12-11T07:25:15.806Z,92940.22
2022-12-11T07:26:19.355Z,92942.63
2022-12-11T07:27:20.853Z,92942.06
2022-12-11T07:28:22.550Z,92934.50
2022-12-11T07:29:24.114Z,92941.19
2022-12-11T07:30:25.620Z,92940.22
2022-12-11T07:31:28.848Z,92939.31
2022-12-11T07:32:30.538Z,92938.75
2022-12-11T07:33:32.117Z,92944.81
2022-12-11T07:34:33.664Z,92940.22
2022-12-11T07:35:35.312Z,92944.38
2022-12-11T07:36:36.834Z,92945.56
2022-12-11T07:37:41.321Z,92945.75
2022-12-11T07:38:42.835Z,92940.41
2022-12-11T07:39:44.364Z,92939.50
2022-12-11T07:40:45.902Z,92937.19
2022-12-11T07:41:47.408Z,92937.44
2022-12-11T07:42:48.994Z,92945.91
2022-12-11T07:43:50.555Z,92935.44
2022-12-11T07:44:52.071Z,92938.03
2022-12-11T07:45:53.623Z,92939.69
2022-12-11T07:46:55.180Z,92941.84
2022-12-11T07:47:56.686Z,92945.63
2022-12-11T07:48:58.289Z,92941.69
2022-12-11T07:49:59.818Z,92940.00
2022-12-11T07:51:08.529Z,92947.97
2022-12-11T07:52:10.096Z,92949.75
2022-12-11T07:53:12.975Z,92946.13
2022-12-11T07:54:15.899Z,92945.16
2022-12-11T07:55:17.467Z,92952.22
2022-12-11T07:56:19.425Z,92943.47
2022-12-11T07:57:21.000Z,92947.97
2022-12-11T07:58:22.524Z,92946.03
2022-12-11T07:59:24.022Z,92951.75
2022-12-11T08:00:26.098Z,92944.25
2022-12-11T08:01:30.044Z,92951.44
2022-12-11T08:02:36.910Z,92949.44
2022-12-11T08:03:39.071Z,92952.00
2022-12-11T08:04:40.585Z,92953.03
2022-12-11T08:05:47.899Z,92950.50
2022-12-11T08:06:49.458Z,92952.78
2022-12-11T08:07:51.041Z,92953.28
2022-12-11T08:08:54.600Z,92953.38
2022-12-11T08:09:56.121Z,92957.94
2022-12-11T08:11:00.773Z,92953.28
2022-12-11T08:12:02.310Z,92954.94
2022-12-11T08:13:03.873Z,92954.97
2022-12-11T08:14:05.874Z,92950.75
2022-12-11T08:15:08.597Z,92954.13
2022-12-11T08:16:12.364Z,92955.41
2022-12-11T08:17:13.888Z,92958.72
2022-12-11T08:18:15.438Z,92961.63
2022-12-11T08:19:17.004Z,92968.41
2022-12-11T08:20:18.578Z,92967.72
2022-12-11T08:21:22.358Z,92973.56
2022-12-11T08:22:23.904Z,92972.75
2022-12-11T08:23:25.462Z,92964.66
2022-12-11T08:24:28.331Z,92973.94
2022-12-11T08:25:29.882Z,92969.84
2022-12-11T08:26:31.584Z,92970.66
2022-12-11T08:27:33.145Z,92971.72
2022-12-11T08:28:35.136Z,92969.75
2022-12-11T08:29:37.279Z,92977.19
2022-12-11T08:30:39.253Z,92970.41
2022-12-11T08:31:41.893Z,92971.34
2022-12-11T08:32:43.461Z,92978.09
2022-12-11T08:33:45.331Z,92975.63
2022-12-11T08:34:46.816Z,92973.19
2022-12-11T08:35:48.370Z,92977.75
2022-12-11T08:36:49.931Z,92974.38
2022-12-11T08:37:51.594Z,92975.19
2022-12-11T08:38:54.986Z,92971.81
2022-12-11T08:39:58.413Z,92977.03
2022-12-11T08:41:08.555Z,92974.13
2022-12-11T08:42:10.244Z,92976.72
2022-12-11T08:43:11.786Z,92976.25
2022-12-11T08:44:16.707Z,92974.63
2022-12-11T08:45:18.589Z,92976.38
2022-12-11T08:46:20.726Z,92973.91
2022-12-11T08:47:22.279Z,92971.59
2022-12-11T08:48:23.785Z,92970.88
2022-12-11T08:49:27.592Z,92969.50
2022-12-11T08:50:32.830Z,92979.16
2022-12-11T08:51:34.372Z,92969.84
2022-12-11T08:52:35.914Z,92966.56
2022-12-11T08:53:37.529Z,92969.94
2022-12-11T08:54:39.150Z,92967.81
2022-12-11T08:55:42.023Z,92967.94
2022-12-11T08:56:43.535Z,92970.50
2022-12-11T08:57:45.110Z,92972.00
2022-12-11T08:58:47.437Z,92970.03
2022-12-11T08:59:49.069Z,92969.09
2022-12-11T09:00:50.701Z,92976.72
2022-12-11T09:01:52.389Z,92972.34
2022-12-11T09:02:54.024Z,92974.09
2022-12-11T09:03:56.623Z,92961.41
2022-12-11T09:04:58.150Z,92963.06
2022-12-11T09:05:59.786Z,92962.69
2022-12-11T09:07:01.392Z,92959.06
2022-12-11T09:08:03.020Z,92964.44
2022-12-11T09:09:05.129Z,92966.94
2022-12-11T09:10:08.517Z,92958.25
2022-12-11T09:11:14.161Z,92958.72
2022-12-11T09:12:15.683Z,92962.91
2022-12-11T09:13:17.290Z,92962.59
2022-12-11T09:14:18.871Z,92960.94
2022-12-11T09:15:20.490Z,92956.09
2022-12-11T09:16:24.188Z,92956.31
2022-12-11T09:17:25.734Z,92966.06
2022-12-11T09:20:30.257Z,92959.94
2022-12-11T09:21:31.900Z,92971.88
2022-12-11T09:22:33.564Z,92962.97
2022-12-11T09:23:35.176Z,92959.59
2022-12-11T09:24:36.765Z,92961.97
2022-12-11T09:25:39.965Z,92963.94
2022-12-11T09:26:42.907Z,92966.19
2022-12-11T09:27:44.492Z,92967.56
2022-12-11T09:28:47.273Z,92968.56
2022-12-11T09:29:49.043Z,92967.19
2022-12-11T09:30:51.149Z,92966.38
2022-12-11T09:31:52.678Z,92964.50
2022-12-11T09:32:54.192Z,92964.28
2022-12-11T09:33:58.371Z,92966.13
2022-12-11T09:34:59.869Z,92967.31
2022-12-11T09:36:02.345Z,92960.09
2022-12-11T09:37:03.858Z,92964.19
2022-12-11T09:38:05.397Z,92966.25
2022-12-11T09:39:08.715Z,92961.59
2022-12-11T09:40:11.804Z,92964.78
2022-12-11T09:41:29.464Z,92965.59
2022-12-11T09:42:46.881Z,92966.47
2022-12-11T09:43:58.102Z,92965.34
2022-12-11T09:45:01.805Z,92967.69
2022-12-11T09:46:06.975Z,92959.81
2022-12-11T09:47:18.982Z,92959.72
2022-12-11T09:48:24.014Z,92954.34
2022-12-11T09:49:31.880Z,92948.59
2022-12-11T09:50:34.799Z,92946.41
2022-12-11T09:51:42.331Z,92949.88
2022-12-11T09:52:54.487Z,92947.94
2022-12-11T09:54:00.102Z,92942.78
2022-12-11T09:55:10.088Z,92942.75
2022-12-11T09:56:17.886Z,92937.56
2022-12-11T09:57:43.543Z,92940.13
2022-12-11T09:58:57.993Z,92940.91
2022-12-11T10:00:16.136Z,92940.53
2022-12-11T10:01:24.585Z,92936.09
2022-12-11T10:02:41.004Z,92947.38
2022-12-11T10:04:08.288Z,92936.69
2022-12-11T10:05:17.656Z,92941.88
2022-12-11T10:06:28.204Z,92944.22
2022-12-11T10:07:36.030Z,92936.34
2022-12-11T10:08:45.458Z,92940.69
2022-12-11T10:09:51.566Z,92930.66
2022-12-11T10:11:02.188Z,92928.19
2022-12-11T10:12:18.790Z,92928.47
2022-12-11T10:13:37.338Z,92935.94
2022-12-11T10:14:52.031Z,92928.31
2022-12-11T10:16:00.381Z,92924.06
2022-12-11T10:17:09.874Z,92929.63
2022-12-11T10:18:14.775Z,92929.22
2022-12-11T10:19:20.310Z,92927.41
2022-12-11T10:20:24.407Z,92923.94
2022-12-11T10:21:26.590Z,92929.75
2022-12-11T10:22:32.666Z,92927.47
2022-12-11T10:23:38.489Z,92928.63
2022-12-11T10:26:07.707Z,92921.38
2022-12-11T10:27:16.378Z,92921.75
2022-12-11T10:28:20.317Z,92926.13
2022-12-11T10:29:23.638Z,92924.25
2022-12-11T10:30:31.598Z,92922.16
2022-12-11T10:31:42.614Z,92916.00
2022-12-11T10:32:51.496Z,92920.00
2022-12-11T10:33:59.222Z,92916.56
2022-12-11T10:35:05.168Z,92916.69
2022-12-11T10:36:08.558Z,92915.03
2022-12-11T10:37:10.115Z,92916.66
2022-12-11T10:38:15.510Z,92906.63
2022-12-11T10:39:19.140Z,92913.03
2022-12-11T10:40:21.981Z,92908.16
2022-12-11T10:41:37.458Z,92911.34
2022-12-11T10:42:44.053Z,92911.94
2022-12-11T10:43:49.264Z,92906.00
2022-12-11T10:45:00.912Z,92902.97
2022-12-11T10:46:03.093Z,92904.06
2022-12-11T10:47:07.098Z,92897.56
2022-12-11T10:48:11.090Z,92904.94
2022-12-11T10:49:24.598Z,92901.81
2022-12-11T10:50:26.420Z,92905.47
2022-12-11T10:51:34.843Z,92902.44
2022-12-11T10:52:42.247Z,92901.03
2022-12-11T10:53:49.110Z,92901.91
2022-12-11T10:54:58.435Z,92901.16
2022-12-11T10:56:01.637Z,92897.56
2022-12-11T10:57:05.066Z,92899.75
2022-12-11T10:58:06.826Z,92894.66
2022-12-11T10:59:24.111Z,92895.56
2022-12-11T11:00:32.104Z,92896.28
2022-12-11T11:01:33.797Z,92888.38
2022-12-11T11:02:37.485Z,92889.94
2022-12-11T11:03:53.315Z,92882.47
2022-12-11T11:04:57.137Z,92875.91
2022-12-11T11:06:04.459Z,92877.66
2022-12-11T11:07:13.458Z,92880.75
2022-12-11T11:08:23.917Z,92874.84
2022-12-11T11:09:30.005Z,92875.75
2022-12-11T11:10:31.512Z,92868.78
2022-12-11T11:11:36.940Z,92873.34
2022-12-11T11:12:40.973Z,92864.91
2022-12-11T11:13:42.474Z,92866.13
2022-12-11T11:14:44.006Z,92867.38
2022-12-11T11:15:47.198Z,92865.88
2022-12-11T11:16:50.719Z,92870.84
2022-12-11T11:17:55.999Z,92863.38
2022-12-11T11:18:58.070Z,92867.72
2022-12-11T11:20:04.560Z,92867.16
2022-12-11T11:21:06.614Z,92870.88
2022-12-11T11:22:14.818Z,92861.88
2022-12-11T11:23:18.670Z,92867.00
2022-12-11T11:24:28.563Z,92868.41
2022-12-11T11:25:32.704Z,92867.28
2022-12-11T11:27:11.042Z,92870.69
2022-12-11T11:27:57.699Z,92862.22
2022-12-11T11:28:59.298Z,92863.63
2022-12-11T11:30:04.273Z,92861.88
2022-12-11T11:31:10.710Z,92858.91
2022-12-11T11:32:20.077Z,92855.34
2022-12-11T11:33:23.677Z,92858.28
2022-12-11T11:34:25.266Z,92855.47
2022-12-11T11:35:28.259Z,92853.81
2022-12-11T11:36:32.366Z,92855.91
2022-12-11T11:37:34.440Z,92849.56
2022-12-11T11:38:40.855Z,92850.41
2022-12-11T11:39:43.847Z,92855.91
2022-12-11T11:40:51.408Z,92855.00
2022-12-11T11:42:01.714Z,92850.13
2022-12-11T11:43:13.304Z,92849.84
2022-12-11T11:44:19.874Z,92853.72
2022-12-11T11:45:25.264Z,92852.66
2022-12-11T11:46:32.916Z,92853.72
2022-12-11T11:47:39.613Z,92845.63
2022-12-11T11:48:50.892Z,92843.00
2022-12-11T11:50:00.017Z,92849.16
2022-12-11T11:51:12.636Z,92843.38
2022-12-11T11:52:19.309Z,92843.59
2022-12-11T11:53:27.022Z,92840.78
2022-12-11T11:54:33.262Z,92845.28
2022-12-11T11:55:46.553Z,92849.53
2022-12-11T11:56:54.012Z,92840.28
2022-12-11T11:58:00.982Z,92843.53
2022-12-11T11:59:11.792Z,92853.25
2022-12-11T12:00:20.114Z,92849.19
2022-12-11T12:01:22.217Z,92840.38
2022-12-11T12:02:25.339Z,92843.75
2022-12-11T12:03:28.937Z,92842.25
2022-12-11T12:04:34.082Z,92843.28
2022-12-11T12:05:42.538Z,92836.38
2022-12-11T12:12:58.017Z,92840.56
2022-12-11T12:14:28.766Z,92844.16
2022-12-11T12:15:38.594Z,92837.25
2022-12-11T12:16:53.763Z,92833.56
2022-12-11T12:18:04.039Z,92833.22
2022-12-11T12:19:14.088Z,92827.97
2022-12-11T12:20:24.425Z,92836.59
2022-12-11T12:21:33.546Z,92830.38
2022-12-11T12:22:50.387Z,92830.69
2022-12-11T12:24:05.405Z,92835.03
2022-12-11T12:25:16.447Z,92834.16
2022-12-11T12:26:29.393Z,92839.09
2022-12-11T12:27:55.269Z,92839.50
2022-12-11T12:29:09.048Z,92846.31
2022-12-11T12:30:20.396Z,92837.31
2022-12-11T12:31:41.391Z,92838.34
2022-12-11T12:33:03.477Z,92832.84
2022-12-11T12:34:14.084Z,92834.47
2022-12-11T12:35:33.737Z,92837.13
2022-12-11T12:36:45.681Z,92826.31
2022-12-11T12:37:56.955Z,92830.19
2022-12-11T12:39:01.781Z,92828.66
2022-12-11T12:40:13.955Z,92829.88
2022-12-11T12:41:20.845Z,92826.91
2022-12-11T12:42:35.004Z,92828.78
2022-12-11T12:44:00.311Z,92823.53
2022-12-11T12:45:10.712Z,92822.47
2022-12-11T12:46:26.629Z,92830.44